createdAt,value
2017-08-31T00:00:05.919Z,986.43
2017-08-31T00:01:05.878Z,986.43
2017-08-31T00:02:05.877Z,986.43
2017-08-31T00:03:05.880Z,986.41
2017-08-31T00:04:05.882Z,986.38
2017-08-31T00:05:05.887Z,986.37
2017-08-31T00:06:05.904Z,986.3
2017-08-31T00:07:05.893Z,986.25
2017-08-31T00:08:05.896Z,986.3
2017-08-31T00:09:05.901Z,986.25
2017-08-31T00:10:05.904Z,986.2
2017-08-31T00:11:05.912Z,986.19
2017-08-31T00:12:05.920Z,986.13
2017-08-31T00:13:05.913Z,986.14
2017-08-31T00:14:05.918Z,986.13
2017-08-31T00:15:05.921Z,986.13
2017-08-31T00:16:05.924Z,986.15
2017-08-31T00:17:05.932Z,986.18
2017-08-31T00:18:05.937Z,986.14
2017-08-31T00:19:05.934Z,986.13
2017-08-31T00:20:05.938Z,986.07
2017-08-31T00:21:05.941Z,986.1
2017-08-31T00:22:05.946Z,986.04
2017-08-31T00:23:05.948Z,986.04
2017-08-31T00:24:05.950Z,986.08
2017-08-31T00:25:05.956Z,986.16
2017-08-31T00:26:05.958Z,986.13
2017-08-31T00:27:05.962Z,986.11
2017-08-31T00:28:05.967Z,986.1
2017-08-31T00:29:05.969Z,986.12
2017-08-31T00:30:05.973Z,986.13
2017-08-31T00:31:05.977Z,986.05
2017-08-31T00:32:05.979Z,986.09
2017-08-31T00:33:05.985Z,986.06
2017-08-31T00:34:05.994Z,986.04
2017-08-31T00:35:05.993Z,986.01
2017-08-31T00:36:06.006Z,986.02
2017-08-31T00:37:05.997Z,986.07
2017-08-31T00:38:06.006Z,986.03
2017-08-31T00:39:06.005Z,986.02
2017-08-31T00:40:06.014Z,985.95
2017-08-31T00:41:06.015Z,985.92
2017-08-31T00:42:06.013Z,985.89
2017-08-31T00:43:06.021Z,985.9
2017-08-31T00:44:06.021Z,985.95
2017-08-31T00:45:06.025Z,985.94
2017-08-31T00:46:06.028Z,985.9
2017-08-31T00:47:06.036Z,985.87
2017-08-31T00:48:06.035Z,985.85
2017-08-31T00:49:06.039Z,985.81
2017-08-31T00:50:06.043Z,985.76
2017-08-31T00:51:06.052Z,985.76
2017-08-31T00:52:06.075Z,985.81
2017-08-31T00:53:06.053Z,985.83
2017-08-31T00:54:06.056Z,985.88
2017-08-31T00:55:06.059Z,985.87
2017-08-31T00:56:06.065Z,985.92
2017-08-31T00:57:06.066Z,985.91
2017-08-31T00:58:06.071Z,985.95
2017-08-31T00:59:06.072Z,986
2017-08-31T01:00:07.177Z,986.06
2017-08-31T01:01:06.103Z,986.04
2017-08-31T01:02:06.084Z,986.07
2017-08-31T01:03:06.086Z,986.05
2017-08-31T01:04:06.090Z,985.98
2017-08-31T01:05:06.093Z,985.99
2017-08-31T01:06:06.096Z,986.02
2017-08-31T01:07:06.100Z,986.02
2017-08-31T01:08:06.103Z,986.04
2017-08-31T01:09:06.107Z,986
2017-08-31T01:10:06.109Z,986
2017-08-31T01:11:06.113Z,986.01
2017-08-31T01:12:06.117Z,986.04
2017-08-31T01:13:06.120Z,986.05
2017-08-31T01:14:06.146Z,986.05
2017-08-31T01:15:06.127Z,986.02
2017-08-31T01:16:06.148Z,986.02
2017-08-31T01:17:06.133Z,986.02
2017-08-31T01:18:06.138Z,986
2017-08-31T01:19:06.141Z,985.95
2017-08-31T01:20:06.144Z,985.97
2017-08-31T01:21:06.147Z,985.93
2017-08-31T01:22:06.150Z,985.91
2017-08-31T01:23:06.170Z,985.98
2017-08-31T01:24:06.158Z,985.99
2017-08-31T01:25:06.161Z,985.97
2017-08-31T01:26:06.171Z,986.03
2017-08-31T01:27:06.171Z,986.04
2017-08-31T01:28:06.175Z,986.04
2017-08-31T01:29:06.184Z,986.04
2017-08-31T01:30:06.187Z,986.08
2017-08-31T01:31:06.185Z,986.08
2017-08-31T01:32:06.184Z,986.1
2017-08-31T01:33:06.190Z,986.03
2017-08-31T01:34:06.194Z,986.03
2017-08-31T01:35:06.196Z,986.02
2017-08-31T01:36:06.198Z,986.05
2017-08-31T01:37:06.201Z,986.04
2017-08-31T01:38:06.206Z,986.02
2017-08-31T01:39:06.209Z,986.07
2017-08-31T01:40:06.212Z,986.13
2017-08-31T01:41:06.216Z,986.11
2017-08-31T01:42:06.220Z,986.08
2017-08-31T01:43:06.222Z,986.07
2017-08-31T01:44:06.228Z,986.15
2017-08-31T01:45:06.244Z,986.23
2017-08-31T01:46:06.245Z,986.2
2017-08-31T01:47:06.242Z,986.23
2017-08-31T01:48:06.252Z,986.22
2017-08-31T01:49:06.245Z,986.18
2017-08-31T01:50:06.255Z,986.18
2017-08-31T01:51:06.255Z,986.27
2017-08-31T01:52:06.256Z,986.26
2017-08-31T01:53:06.263Z,986.3
2017-08-31T01:54:06.261Z,986.29
2017-08-31T01:55:06.270Z,986.28
2017-08-31T01:56:06.268Z,986.31
2017-08-31T01:57:06.272Z,986.2
2017-08-31T01:58:06.274Z,986.2
2017-08-31T01:59:06.278Z,986.15
2017-08-31T02:00:06.283Z,986.13
2017-08-31T02:01:10.999Z,986.1
2017-08-31T02:02:06.287Z,986.1
2017-08-31T02:03:06.291Z,986.05
2017-08-31T02:04:06.298Z,986.06
2017-08-31T02:05:06.299Z,986.04
2017-08-31T02:06:06.306Z,986.12
2017-08-31T02:07:06.305Z,986.15
2017-08-31T02:08:06.309Z,986.2
2017-08-31T02:09:06.313Z,986.26
2017-08-31T02:10:06.317Z,986.28
2017-08-31T02:11:06.321Z,986.22
2017-08-31T02:12:06.323Z,986.2
2017-08-31T02:13:06.330Z,986.12
2017-08-31T02:14:06.340Z,986.11
2017-08-31T02:15:06.334Z,986.07
2017-08-31T02:16:06.337Z,986.06
2017-08-31T02:17:06.340Z,986.11
2017-08-31T02:18:06.343Z,986.11
2017-08-31T02:19:06.347Z,986.09
2017-08-31T02:20:06.353Z,986.04
2017-08-31T02:21:06.356Z,986.04
2017-08-31T02:22:06.358Z,985.94
2017-08-31T02:23:06.362Z,985.86
2017-08-31T02:24:06.364Z,985.83
2017-08-31T02:25:06.368Z,985.8
2017-08-31T02:26:06.371Z,985.81
2017-08-31T02:27:06.374Z,985.81
2017-08-31T02:28:06.378Z,985.82
2017-08-31T02:29:06.381Z,985.87
2017-08-31T02:30:06.384Z,985.84
2017-08-31T02:31:06.388Z,985.79
2017-08-31T02:32:06.391Z,985.76
2017-08-31T02:33:06.395Z,985.7
2017-08-31T02:34:06.400Z,985.7
2017-08-31T02:35:06.402Z,985.75
2017-08-31T02:36:06.407Z,985.75
2017-08-31T02:37:06.408Z,985.75
2017-08-31T02:38:06.415Z,985.73
2017-08-31T02:39:06.415Z,985.76
2017-08-31T02:40:06.417Z,985.72
2017-08-31T02:41:06.424Z,985.68
2017-08-31T02:42:06.428Z,985.76
2017-08-31T02:43:06.428Z,985.79
2017-08-31T02:44:06.432Z,985.82
2017-08-31T02:45:06.434Z,985.86
2017-08-31T02:46:06.456Z,985.89
2017-08-31T02:47:06.441Z,985.89
2017-08-31T02:48:06.444Z,985.86
2017-08-31T02:49:06.448Z,985.86
2017-08-31T02:50:06.451Z,985.88
2017-08-31T02:51:06.459Z,985.92
2017-08-31T02:52:06.460Z,985.99
2017-08-31T02:53:06.460Z,986.01
2017-08-31T02:54:06.465Z,986.02
2017-08-31T02:55:06.467Z,986.04
2017-08-31T02:56:06.470Z,985.97
2017-08-31T02:57:06.474Z,985.97
2017-08-31T02:58:06.477Z,985.93
2017-08-31T02:59:06.484Z,985.98
2017-08-31T03:00:06.485Z,985.92
2017-08-31T03:01:06.489Z,985.91
2017-08-31T03:02:08.392Z,985.86
2017-08-31T03:03:06.493Z,985.89
2017-08-31T03:04:06.497Z,985.84
2017-08-31T03:05:06.503Z,985.8
2017-08-31T03:06:06.504Z,985.79
2017-08-31T03:07:06.505Z,985.83
2017-08-31T03:08:06.509Z,985.87
2017-08-31T03:09:06.512Z,985.82
2017-08-31T03:10:06.516Z,985.84
2017-08-31T03:11:06.519Z,985.86
2017-08-31T03:12:06.523Z,985.87
2017-08-31T03:13:06.526Z,985.95
2017-08-31T03:14:06.527Z,985.97
2017-08-31T03:15:06.532Z,985.94
2017-08-31T03:16:06.535Z,985.97
2017-08-31T03:17:06.539Z,985.93
2017-08-31T03:18:06.541Z,985.9
2017-08-31T03:19:06.548Z,985.82
2017-08-31T03:20:06.554Z,985.79
2017-08-31T03:21:06.556Z,985.77
2017-08-31T03:22:06.569Z,985.81
2017-08-31T03:23:06.558Z,985.77
2017-08-31T03:24:06.569Z,985.78
2017-08-31T03:25:06.570Z,985.7
2017-08-31T03:26:06.570Z,985.67
2017-08-31T03:27:06.578Z,985.63
2017-08-31T03:28:06.577Z,985.57
2017-08-31T03:29:06.578Z,985.59
2017-08-31T03:30:06.583Z,985.6
2017-08-31T03:31:06.586Z,985.61
2017-08-31T03:32:06.589Z,985.59
2017-08-31T03:33:06.591Z,985.57
2017-08-31T03:34:06.595Z,985.6
2017-08-31T03:35:06.598Z,985.65
2017-08-31T03:36:06.602Z,985.68
2017-08-31T03:37:06.604Z,985.72
2017-08-31T03:38:06.613Z,985.77
2017-08-31T03:39:06.609Z,985.79
2017-08-31T03:40:06.613Z,985.87
2017-08-31T03:41:06.620Z,985.82
2017-08-31T03:42:06.620Z,985.86
2017-08-31T03:43:06.625Z,985.89
2017-08-31T03:44:06.626Z,985.89
2017-08-31T03:45:06.629Z,985.83
2017-08-31T03:46:06.633Z,985.84
2017-08-31T03:47:06.643Z,985.83
2017-08-31T03:48:06.642Z,985.88
2017-08-31T03:49:06.645Z,985.79
2017-08-31T03:50:06.645Z,985.79
2017-08-31T03:51:06.654Z,985.83
2017-08-31T03:52:06.651Z,985.83
2017-08-31T03:53:06.654Z,985.81
2017-08-31T03:54:06.656Z,985.83
2017-08-31T03:55:06.659Z,985.84
2017-08-31T03:56:06.683Z,985.85
2017-08-31T03:57:06.667Z,985.82
2017-08-31T03:58:06.669Z,985.87
2017-08-31T03:59:06.672Z,985.87
2017-08-31T04:00:06.675Z,985.87
2017-08-31T04:01:06.679Z,985.86
2017-08-31T04:02:06.681Z,985.87
2017-08-31T04:03:06.685Z,985.84
2017-08-31T04:04:06.687Z,985.86
2017-08-31T04:05:06.689Z,985.89
2017-08-31T04:06:06.694Z,985.89
2017-08-31T04:07:06.696Z,985.91
2017-08-31T04:08:06.699Z,985.94
2017-08-31T04:09:06.702Z,985.95
2017-08-31T04:10:06.708Z,985.96
2017-08-31T04:11:06.717Z,985.93
2017-08-31T04:12:06.715Z,985.99
2017-08-31T04:13:06.721Z,985.95
2017-08-31T04:14:06.717Z,985.99
2017-08-31T04:15:06.721Z,985.95
2017-08-31T04:16:06.726Z,985.97
2017-08-31T04:17:06.724Z,985.89
2017-08-31T04:18:06.729Z,985.92
2017-08-31T04:19:06.732Z,985.9
2017-08-31T04:20:06.735Z,985.96
2017-08-31T04:21:06.744Z,985.96
2017-08-31T04:22:06.744Z,986.01
2017-08-31T04:23:06.744Z,986.03
2017-08-31T04:24:06.747Z,986
2017-08-31T04:25:06.750Z,986.01
2017-08-31T04:26:06.758Z,985.99
2017-08-31T04:27:06.756Z,985.98
2017-08-31T04:28:06.761Z,986.01
2017-08-31T04:29:06.762Z,986.04
2017-08-31T04:30:06.765Z,986.09
2017-08-31T04:31:06.768Z,986.1
2017-08-31T04:32:06.772Z,986.08
2017-08-31T04:33:06.775Z,986.07
2017-08-31T04:34:06.777Z,986.09
2017-08-31T04:35:06.788Z,986.1
2017-08-31T04:36:06.790Z,986.12
2017-08-31T04:37:06.791Z,986.12
2017-08-31T04:38:06.791Z,986.08
2017-08-31T04:39:06.793Z,986.02
2017-08-31T04:40:06.800Z,985.99
2017-08-31T04:41:06.802Z,986.01
2017-08-31T04:42:06.802Z,985.98
2017-08-31T04:43:06.805Z,986.03
2017-08-31T04:44:06.810Z,986.08
2017-08-31T04:45:06.813Z,986.09
2017-08-31T04:46:06.815Z,986.08
2017-08-31T04:47:06.822Z,986.01
2017-08-31T04:48:06.822Z,986.01
2017-08-31T04:49:06.825Z,986.02
2017-08-31T04:50:06.828Z,986.04
2017-08-31T04:51:06.843Z,986.02
2017-08-31T04:52:06.841Z,986
2017-08-31T04:53:06.843Z,985.9
2017-08-31T04:54:06.844Z,985.8
2017-08-31T04:55:06.845Z,985.75
2017-08-31T04:56:06.851Z,985.73
2017-08-31T04:57:06.852Z,985.82
2017-08-31T04:58:06.858Z,985.78
2017-08-31T04:59:06.858Z,985.86
2017-08-31T05:00:06.862Z,985.84
2017-08-31T05:01:06.866Z,985.87
2017-08-31T05:02:06.866Z,985.88
2017-08-31T05:03:06.871Z,985.87
2017-08-31T05:04:06.873Z,985.89
2017-08-31T05:05:06.878Z,985.89
2017-08-31T05:06:06.896Z,985.88
2017-08-31T05:07:06.883Z,985.88
2017-08-31T05:08:06.885Z,985.87
2017-08-31T05:09:06.889Z,985.8
2017-08-31T05:10:06.892Z,985.81
2017-08-31T05:11:06.897Z,985.82
2017-08-31T05:12:06.899Z,985.86
2017-08-31T05:13:06.911Z,985.85
2017-08-31T05:14:06.917Z,985.89
2017-08-31T05:15:06.917Z,986
2017-08-31T05:16:06.914Z,986.1
2017-08-31T05:17:06.916Z,986.15
2017-08-31T05:18:06.917Z,986.13
2017-08-31T05:19:06.921Z,986.11
2017-08-31T05:20:06.925Z,986.07
2017-08-31T05:21:06.950Z,986.04
2017-08-31T05:22:06.935Z,986.04
2017-08-31T05:23:06.948Z,986.05
2017-08-31T05:24:06.946Z,986.05
2017-08-31T05:25:06.949Z,986.1
2017-08-31T05:26:06.953Z,986.12
2017-08-31T05:27:06.950Z,986.16
2017-08-31T05:28:06.967Z,986.15
2017-08-31T05:29:06.959Z,986.23
2017-08-31T05:30:06.965Z,986.31
2017-08-31T05:31:06.966Z,986.43
2017-08-31T05:32:06.974Z,986.62
2017-08-31T05:33:06.974Z,986.76
2017-08-31T05:34:06.984Z,986.73
2017-08-31T05:35:06.983Z,986.44
2017-08-31T05:36:06.990Z,986.16
2017-08-31T05:37:06.984Z,985.89
2017-08-31T05:38:06.999Z,985.71
2017-08-31T05:39:07.002Z,985.61
2017-08-31T05:40:06.999Z,985.64
2017-08-31T05:41:07.006Z,985.87
2017-08-31T05:42:07.011Z,986.07
2017-08-31T05:43:07.015Z,986.18
2017-08-31T05:44:07.018Z,986.19
2017-08-31T05:45:07.017Z,986.21
2017-08-31T05:46:07.023Z,986.16
2017-08-31T05:47:07.022Z,986.31
2017-08-31T05:48:07.024Z,986.45
2017-08-31T05:49:07.025Z,986.57
2017-08-31T05:50:07.029Z,986.78
2017-08-31T05:51:07.032Z,987.1
2017-08-31T05:52:07.038Z,987.52
2017-08-31T05:53:07.042Z,987.94
2017-08-31T05:54:07.051Z,988.29
2017-08-31T05:55:07.046Z,988.46
2017-08-31T05:56:07.049Z,988.54
2017-08-31T05:57:07.055Z,988.5
2017-08-31T05:58:07.063Z,988.15
2017-08-31T05:59:07.059Z,987.93
2017-08-31T06:00:07.071Z,987.96
2017-08-31T06:01:07.065Z,987.8
2017-08-31T06:02:07.075Z,987.52
2017-08-31T06:03:07.072Z,987.34
2017-08-31T06:04:07.075Z,987.41
2017-08-31T06:05:07.078Z,987.59
2017-08-31T06:06:07.086Z,987.67
2017-08-31T06:07:07.084Z,987.74
2017-08-31T06:08:07.087Z,987.72
2017-08-31T06:09:07.099Z,987.84
2017-08-31T06:10:07.092Z,987.84
2017-08-31T06:11:07.104Z,987.89
2017-08-31T06:12:07.102Z,987.96
2017-08-31T06:13:07.107Z,987.94
2017-08-31T06:14:07.104Z,987.95
2017-08-31T06:15:07.105Z,987.92
2017-08-31T06:16:07.117Z,987.87
2017-08-31T06:17:07.111Z,987.85
2017-08-31T06:18:07.114Z,987.86
2017-08-31T06:19:07.117Z,987.86
2017-08-31T06:20:07.120Z,987.9
2017-08-31T06:21:07.122Z,987.92
2017-08-31T06:22:07.125Z,987.96
2017-08-31T06:23:07.129Z,988.03
2017-08-31T06:24:07.130Z,987.98
2017-08-31T06:25:07.133Z,987.94
2017-08-31T06:26:07.136Z,987.96
2017-08-31T06:27:07.140Z,987.95
2017-08-31T06:28:07.141Z,987.92
2017-08-31T06:29:07.145Z,987.92
2017-08-31T06:30:07.148Z,987.9
2017-08-31T06:31:07.150Z,987.97
2017-08-31T06:32:07.154Z,987.97
2017-08-31T06:33:07.154Z,987.95
2017-08-31T06:34:07.159Z,987.97
2017-08-31T06:35:07.161Z,988
2017-08-31T06:36:07.167Z,988
2017-08-31T06:37:07.167Z,988.01
2017-08-31T06:38:07.176Z,987.99
2017-08-31T06:39:07.174Z,988
2017-08-31T06:40:07.179Z,988
2017-08-31T06:41:07.188Z,988.01
2017-08-31T06:42:07.182Z,988.07
2017-08-31T06:43:07.183Z,988.03
2017-08-31T06:44:07.187Z,988.08
2017-08-31T06:45:07.191Z,988.08
2017-08-31T06:46:07.197Z,988.07
2017-08-31T06:47:07.198Z,988.13
2017-08-31T06:48:12.407Z,988.11
2017-08-31T06:49:07.206Z,988.08
2017-08-31T06:50:07.205Z,988.05
2017-08-31T06:51:07.214Z,988.05
2017-08-31T06:52:07.215Z,988.1
2017-08-31T06:53:07.217Z,988.11
2017-08-31T06:54:07.221Z,988.15
2017-08-31T06:55:07.226Z,988.16
2017-08-31T06:56:07.229Z,988.18
2017-08-31T06:57:07.243Z,988.15
2017-08-31T06:58:07.246Z,988.18
2017-08-31T06:59:07.241Z,988.18
2017-08-31T07:00:07.245Z,988.16
2017-08-31T07:01:07.254Z,988.12
2017-08-31T07:02:07.252Z,988.12
2017-08-31T07:03:07.256Z,988.15
2017-08-31T07:04:07.262Z,988.14
2017-08-31T07:05:07.273Z,988.14
2017-08-31T07:06:07.288Z,988.14
2017-08-31T07:07:07.278Z,988.16
2017-08-31T07:08:07.286Z,988.16
2017-08-31T07:09:07.288Z,988.2
2017-08-31T07:10:07.291Z,988.2
2017-08-31T07:11:07.292Z,988.21
2017-08-31T07:12:07.295Z,988.27
2017-08-31T07:13:07.300Z,988.24
2017-08-31T07:14:07.314Z,988.28
2017-08-31T07:15:07.313Z,988.35
2017-08-31T07:16:07.315Z,988.34
2017-08-31T07:17:07.318Z,988.32
2017-08-31T07:18:07.325Z,988.37
2017-08-31T07:19:07.325Z,988.38
2017-08-31T07:20:07.331Z,988.31
2017-08-31T07:21:07.334Z,988.32
2017-08-31T07:22:07.338Z,988.31
2017-08-31T07:23:07.345Z,988.31
2017-08-31T07:24:07.355Z,988.32
2017-08-31T07:25:07.356Z,988.31
2017-08-31T07:26:07.358Z,988.36
2017-08-31T07:27:07.356Z,988.32
2017-08-31T07:28:07.361Z,988.31
2017-08-31T07:29:07.366Z,988.25
2017-08-31T07:30:07.368Z,988.18
2017-08-31T07:31:07.376Z,988.13
2017-08-31T07:32:07.376Z,988.12
2017-08-31T07:33:07.379Z,988.12
2017-08-31T07:34:07.384Z,988.14
2017-08-31T07:35:07.387Z,988.25
2017-08-31T07:36:07.396Z,988.25
2017-08-31T07:37:07.396Z,988.24
2017-08-31T07:38:07.400Z,988.29
2017-08-31T07:39:07.404Z,988.32
2017-08-31T07:40:07.408Z,988.38
2017-08-31T07:41:07.415Z,988.45
2017-08-31T07:42:07.419Z,988.46
2017-08-31T07:43:07.419Z,988.47
2017-08-31T07:44:07.423Z,988.53
2017-08-31T07:45:07.425Z,988.54
2017-08-31T07:46:07.434Z,988.54
2017-08-31T07:47:07.435Z,988.62
2017-08-31T07:48:07.439Z,988.65
2017-08-31T07:49:10.146Z,988.67
2017-08-31T07:50:07.448Z,988.68
2017-08-31T07:51:07.453Z,988.71
2017-08-31T07:52:07.454Z,988.73
2017-08-31T07:53:07.458Z,988.72
2017-08-31T07:54:07.463Z,988.76
2017-08-31T07:55:07.506Z,988.71
2017-08-31T07:56:07.477Z,988.73
2017-08-31T07:57:07.475Z,988.74
2017-08-31T07:58:07.479Z,988.74
2017-08-31T07:59:07.483Z,988.74
2017-08-31T08:00:07.492Z,988.76
2017-08-31T08:01:07.496Z,988.77
2017-08-31T08:02:07.497Z,988.86
2017-08-31T08:03:07.500Z,988.76
2017-08-31T08:04:07.503Z,988.72
2017-08-31T08:05:07.508Z,988.75
2017-08-31T08:06:07.514Z,988.66
2017-08-31T08:07:07.518Z,988.66
2017-08-31T08:08:07.523Z,988.66
2017-08-31T08:09:07.527Z,988.63
2017-08-31T08:10:07.533Z,988.64
2017-08-31T08:11:07.548Z,988.62
2017-08-31T08:12:07.547Z,988.63
2017-08-31T08:13:07.550Z,988.67
2017-08-31T08:14:07.555Z,988.68
2017-08-31T08:15:07.722Z,988.69
2017-08-31T08:16:07.563Z,988.67
2017-08-31T08:17:07.567Z,988.63
2017-08-31T08:18:07.571Z,988.6
2017-08-31T08:19:07.578Z,988.63
2017-08-31T08:20:07.588Z,988.57
2017-08-31T08:21:07.589Z,988.56
2017-08-31T08:22:07.590Z,988.55
2017-08-31T08:23:07.595Z,988.64
2017-08-31T08:24:07.614Z,988.71
2017-08-31T08:25:07.683Z,988.78
2017-08-31T08:26:07.620Z,988.84
2017-08-31T08:27:07.616Z,988.84
2017-08-31T08:28:07.622Z,988.89
2017-08-31T08:29:07.625Z,988.93
2017-08-31T08:30:07.630Z,988.9
2017-08-31T08:31:07.636Z,988.9
2017-08-31T08:32:07.638Z,988.92
2017-08-31T08:33:07.643Z,988.98
2017-08-31T08:34:07.647Z,989.02
2017-08-31T08:35:07.656Z,989.08
2017-08-31T08:36:07.661Z,989.14
2017-08-31T08:37:07.663Z,989.17
2017-08-31T08:38:07.667Z,989.2
2017-08-31T08:39:07.670Z,989.27
2017-08-31T08:40:07.674Z,989.3
2017-08-31T08:41:07.688Z,989.35
2017-08-31T08:42:07.683Z,989.35
2017-08-31T08:43:07.695Z,989.33
2017-08-31T08:44:07.691Z,989.3
2017-08-31T08:45:07.697Z,989.28
2017-08-31T08:46:07.704Z,989.25
2017-08-31T08:47:07.713Z,989.26
2017-08-31T08:48:07.709Z,989.3
2017-08-31T08:49:07.715Z,989.35
2017-08-31T08:50:07.786Z,989.36
2017-08-31T08:51:07.726Z,989.42
2017-08-31T08:52:07.726Z,989.48
2017-08-31T08:53:07.731Z,989.52
2017-08-31T08:54:07.734Z,989.54
2017-08-31T08:55:07.738Z,989.59
2017-08-31T08:56:07.746Z,989.6
2017-08-31T08:57:07.746Z,989.6
2017-08-31T08:58:07.751Z,989.68
2017-08-31T08:59:07.755Z,989.63
2017-08-31T09:00:07.833Z,989.57
2017-08-31T09:01:07.765Z,989.5
2017-08-31T09:02:07.769Z,989.55
2017-08-31T09:03:07.771Z,989.56
2017-08-31T09:04:07.776Z,989.56
2017-08-31T09:05:11.491Z,989.64
2017-08-31T09:06:07.785Z,989.66
2017-08-31T09:07:07.789Z,989.65
2017-08-31T09:08:07.794Z,989.62
2017-08-31T09:09:07.795Z,989.67
2017-08-31T09:10:07.978Z,989.71
2017-08-31T09:11:07.806Z,989.77
2017-08-31T09:12:07.809Z,989.75
2017-08-31T09:13:07.813Z,989.8
2017-08-31T09:14:07.817Z,989.86
2017-08-31T09:15:07.893Z,989.89
2017-08-31T09:16:07.828Z,989.95
2017-08-31T09:17:07.829Z,989.95
2017-08-31T09:18:07.834Z,989.94
2017-08-31T09:19:07.839Z,989.93
2017-08-31T09:20:08.025Z,989.88
2017-08-31T09:21:07.849Z,989.84
2017-08-31T09:22:07.852Z,989.86
2017-08-31T09:23:07.865Z,989.86
2017-08-31T09:24:07.861Z,989.88
2017-08-31T09:25:07.969Z,989.89
2017-08-31T09:26:07.876Z,989.91
2017-08-31T09:27:07.883Z,990
2017-08-31T09:28:07.889Z,990.01
2017-08-31T09:29:07.884Z,990.06
2017-08-31T09:30:08.031Z,990.06
2017-08-31T09:31:07.895Z,990.07
2017-08-31T09:32:07.897Z,990.05
2017-08-31T09:33:07.901Z,990.13
2017-08-31T09:34:07.910Z,990.05
2017-08-31T09:35:08.035Z,990.11
2017-08-31T09:36:07.916Z,990.18
2017-08-31T09:37:07.918Z,990.2
2017-08-31T09:38:07.921Z,990.14
2017-08-31T09:39:07.925Z,990.1
2017-08-31T09:40:08.101Z,990.09
2017-08-31T09:41:07.939Z,990.16
2017-08-31T09:42:07.936Z,990.26
2017-08-31T09:43:07.950Z,990.28
2017-08-31T09:44:07.949Z,990.31
2017-08-31T09:45:08.135Z,990.23
2017-08-31T09:46:07.953Z,990.19
2017-08-31T09:47:07.952Z,990.15
2017-08-31T09:48:07.956Z,990.2
2017-08-31T09:49:07.958Z,990.3
2017-08-31T09:50:08.065Z,990.28
2017-08-31T09:51:07.971Z,990.3
2017-08-31T09:52:07.974Z,990.31
2017-08-31T09:53:07.972Z,990.38
2017-08-31T09:54:07.980Z,990.37
2017-08-31T09:55:08.092Z,990.37
2017-08-31T09:56:07.981Z,990.37
2017-08-31T09:57:07.983Z,990.38
2017-08-31T09:58:07.985Z,990.43
2017-08-31T09:59:07.990Z,990.43
2017-08-31T10:00:08.058Z,990.46
2017-08-31T10:01:07.999Z,990.58
2017-08-31T10:02:07.999Z,990.61
2017-08-31T10:03:08.002Z,990.67
2017-08-31T10:04:08.005Z,990.7
2017-08-31T10:05:08.291Z,990.75
2017-08-31T10:06:08.013Z,990.73
2017-08-31T10:07:08.017Z,990.8
2017-08-31T10:08:08.018Z,990.82
2017-08-31T10:09:08.021Z,990.83
2017-08-31T10:10:08.038Z,990.85
2017-08-31T10:11:08.031Z,990.87
2017-08-31T10:12:08.030Z,990.84
2017-08-31T10:13:08.036Z,990.81
2017-08-31T10:14:08.043Z,990.78
2017-08-31T10:15:08.172Z,990.73
2017-08-31T10:16:08.048Z,990.8
2017-08-31T10:17:08.046Z,990.8
2017-08-31T10:18:08.048Z,990.84
2017-08-31T10:19:08.054Z,990.87
2017-08-31T10:20:08.054Z,990.87
2017-08-31T10:21:13.017Z,990.82
2017-08-31T10:22:08.062Z,990.81
2017-08-31T10:23:08.069Z,990.8
2017-08-31T10:24:08.069Z,990.77
2017-08-31T10:25:08.141Z,990.73
2017-08-31T10:26:08.076Z,990.73
2017-08-31T10:27:08.077Z,990.84
2017-08-31T10:28:08.081Z,990.92
2017-08-31T10:29:08.083Z,991.08
2017-08-31T10:30:08.087Z,991.05
2017-08-31T10:31:08.089Z,991.08
2017-08-31T10:32:08.094Z,991.16
2017-08-31T10:33:08.094Z,991.18
2017-08-31T10:34:08.100Z,991.2
2017-08-31T10:35:08.273Z,991.22
2017-08-31T10:36:08.109Z,991.32
2017-08-31T10:37:08.117Z,991.36
2017-08-31T10:38:08.177Z,991.38
2017-08-31T10:39:08.180Z,991.36
2017-08-31T10:40:08.306Z,991.37
2017-08-31T10:41:08.115Z,991.33
2017-08-31T10:42:08.118Z,991.34
2017-08-31T10:43:08.120Z,991.37
2017-08-31T10:44:08.122Z,991.37
2017-08-31T10:45:08.374Z,991.32
2017-08-31T10:46:08.131Z,991.37
2017-08-31T10:47:08.130Z,991.33
2017-08-31T10:48:08.132Z,991.32
2017-08-31T10:49:08.135Z,991.42
2017-08-31T10:50:08.356Z,991.5
2017-08-31T10:51:08.140Z,991.5
2017-08-31T10:52:08.142Z,991.61
2017-08-31T10:53:08.145Z,991.65
2017-08-31T10:54:08.148Z,991.68
2017-08-31T10:55:08.392Z,991.72
2017-08-31T10:56:08.153Z,991.73
2017-08-31T10:57:08.155Z,991.72
2017-08-31T10:58:08.170Z,991.73
2017-08-31T10:59:08.160Z,991.71
2017-08-31T11:00:08.339Z,991.74
2017-08-31T11:01:08.174Z,991.69
2017-08-31T11:02:08.168Z,991.71
2017-08-31T11:03:08.171Z,991.72
2017-08-31T11:04:08.175Z,991.67
2017-08-31T11:05:08.296Z,991.67
2017-08-31T11:06:08.180Z,991.62
2017-08-31T11:07:08.182Z,991.63
2017-08-31T11:08:08.184Z,991.64
2017-08-31T11:09:08.186Z,991.66
2017-08-31T11:10:08.365Z,991.73
2017-08-31T11:11:08.193Z,991.81
2017-08-31T11:12:08.197Z,991.78
2017-08-31T11:13:08.203Z,991.87
2017-08-31T11:14:08.201Z,991.96
2017-08-31T11:15:08.302Z,991.96
2017-08-31T11:16:08.213Z,991.94
2017-08-31T11:17:08.211Z,991.95
2017-08-31T11:18:08.214Z,991.99
2017-08-31T11:19:08.216Z,991.95
2017-08-31T11:20:08.218Z,991.93
2017-08-31T11:21:08.222Z,991.95
2017-08-31T11:22:08.225Z,991.96
2017-08-31T11:23:08.229Z,991.93
2017-08-31T11:24:08.232Z,991.97
2017-08-31T11:25:08.328Z,992.04
2017-08-31T11:26:08.241Z,992.06
2017-08-31T11:27:08.261Z,992.07
2017-08-31T11:28:08.296Z,992.11
2017-08-31T11:29:08.254Z,992.15
2017-08-31T11:30:08.596Z,992.11
2017-08-31T11:31:08.333Z,992.05
2017-08-31T11:32:08.357Z,991.97
2017-08-31T11:33:08.389Z,991.96
2017-08-31T11:34:08.314Z,991.95
2017-08-31T11:35:08.555Z,991.96
2017-08-31T11:36:08.439Z,992.02
2017-08-31T11:37:08.289Z,992.06
2017-08-31T11:38:08.278Z,992.06
2017-08-31T11:39:08.320Z,992.11
2017-08-31T11:40:08.419Z,992.14
2017-08-31T11:41:08.290Z,992.13
2017-08-31T11:42:08.294Z,992.18
2017-08-31T11:43:08.294Z,992.19
2017-08-31T11:44:08.298Z,992.23
2017-08-31T11:45:08.303Z,992.21
2017-08-31T11:46:08.307Z,992.21
2017-08-31T11:47:08.308Z,992.25
2017-08-31T11:48:08.312Z,992.27
2017-08-31T11:49:08.313Z,992.33
2017-08-31T11:50:08.449Z,992.37
2017-08-31T11:51:08.326Z,992.37
2017-08-31T11:52:08.626Z,992.37
2017-08-31T11:53:08.327Z,992.38
2017-08-31T11:54:08.331Z,992.42
2017-08-31T11:55:08.653Z,992.44
2017-08-31T11:56:08.340Z,992.45
2017-08-31T11:57:08.341Z,992.44
2017-08-31T11:58:08.344Z,992.4
2017-08-31T11:59:08.349Z,992.45
2017-08-31T12:00:08.475Z,992.48
2017-08-31T12:01:08.355Z,992.52
2017-08-31T12:02:08.358Z,992.5
2017-08-31T12:03:08.361Z,992.55
2017-08-31T12:04:08.364Z,992.62
2017-08-31T12:05:08.559Z,992.58
2017-08-31T12:06:08.372Z,992.6
2017-08-31T12:07:08.375Z,992.58
2017-08-31T12:08:08.379Z,992.59
2017-08-31T12:09:08.380Z,992.62
2017-08-31T12:10:08.568Z,992.64
2017-08-31T12:11:08.388Z,992.71
2017-08-31T12:12:08.389Z,992.77
2017-08-31T12:13:08.393Z,992.78
2017-08-31T12:14:08.401Z,992.8
2017-08-31T12:15:08.580Z,992.82
2017-08-31T12:16:08.409Z,992.88
2017-08-31T12:17:08.407Z,992.85
2017-08-31T12:18:08.409Z,992.86
2017-08-31T12:19:08.412Z,992.92
2017-08-31T12:20:08.761Z,992.84
2017-08-31T12:21:08.419Z,992.87
2017-08-31T12:22:08.421Z,992.84
2017-08-31T12:23:08.424Z,992.81
2017-08-31T12:24:08.432Z,992.8
2017-08-31T12:25:08.655Z,992.78
2017-08-31T12:26:08.439Z,992.78
2017-08-31T12:27:08.437Z,992.78
2017-08-31T12:28:08.441Z,992.87
2017-08-31T12:29:08.445Z,992.93
2017-08-31T12:30:08.693Z,993
2017-08-31T12:31:08.453Z,993.03